createdAt,value
2023-02-26T00:02:00.190Z,99070.66
2023-02-26T00:07:22.076Z,99074.28
2023-02-26T00:12:44.458Z,99077.00
2023-02-26T00:18:09.615Z,99094.69
2023-02-26T00:23:31.645Z,99083.09
2023-02-26T00:28:53.949Z,99111.56
2023-02-26T00:34:16.109Z,99118.78
2023-02-26T00:39:51.295Z,99115.09
2023-02-26T00:45:14.046Z,99132.00
2023-02-26T00:50:37.778Z,99127.72
2023-02-26T00:55:59.602Z,99143.22
2023-02-26T01:01:21.472Z,99139.06
2023-02-26T01:06:49.001Z,99153.53
2023-02-26T01:12:12.217Z,99169.75
2023-02-26T01:17:41.687Z,99164.50
2023-02-26T01:23:08.717Z,99168.19
2023-02-26T01:28:30.860Z,99194.38
2023-02-26T01:34:14.346Z,99201.09
2023-02-26T01:40:15.187Z,99220.56
2023-02-26T01:45:55.272Z,99213.97
2023-02-26T01:51:18.561Z,99246.09
2023-02-26T01:56:43.637Z,99241.81
2023-02-26T02:02:08.456Z,99258.72
2023-02-26T02:07:30.410Z,99286.63
2023-02-26T02:13:12.387Z,99298.56
2023-02-26T02:18:54.449Z,99304.63
2023-02-26T02:24:37.891Z,99314.66
2023-02-26T02:30:25.783Z,99333.25
2023-02-26T02:35:56.244Z,99330.00
2023-02-26T02:41:28.299Z,99335.94
2023-02-26T02:46:54.481Z,99341.09
2023-02-26T02:52:19.080Z,99354.50
2023-02-26T02:57:47.677Z,99362.13
2023-02-26T03:03:15.898Z,99370.53
2023-02-26T03:08:41.832Z,99383.22
2023-02-26T03:14:04.589Z,99391.84
2023-02-26T03:19:50.998Z,99400.16
2023-02-26T03:25:19.270Z,99417.88
2023-02-26T03:30:59.991Z,99429.81
2023-02-26T03:36:33.055Z,99431.50
2023-02-26T03:42:06.711Z,99439.97
2023-02-26T03:47:30.747Z,99443.34
2023-02-26T03:52:54.609Z,99465.34
2023-02-26T03:58:16.976Z,99470.47
2023-02-26T04:03:45.547Z,99463.66
2023-02-26T04:09:07.854Z,99489.94
2023-02-26T04:14:29.796Z,99495.84
2023-02-26T04:19:51.647Z,99511.06
2023-02-26T04:25:13.610Z,99526.22
2023-02-26T04:30:35.501Z,99530.53
2023-02-26T04:35:57.695Z,99535.63
2023-02-26T04:41:19.620Z,99530.56
2023-02-26T04:46:41.479Z,99541.56
2023-02-26T04:52:03.558Z,99536.53
2023-02-26T04:57:25.711Z,99552.59
2023-02-26T05:02:47.579Z,99556.00
2023-02-26T05:08:09.678Z,99571.22
2023-02-26T05:13:31.494Z,99577.19
2023-02-26T05:18:53.343Z,99589.00
2023-02-26T05:24:15.964Z,99596.63
2023-02-26T05:29:37.882Z,99611.84
2023-02-26T05:34:59.780Z,99614.41
2023-02-26T05:40:21.673Z,99613.53
2023-02-26T05:45:43.521Z,99640.63
2023-02-26T05:51:05.566Z,99665.19
2023-02-26T05:56:27.617Z,99663.50
2023-02-26T06:01:49.566Z,99681.22
2023-02-26T06:07:11.576Z,99682.88
2023-02-26T06:12:33.386Z,99705.72
2023-02-26T06:17:55.220Z,99718.44
2023-02-26T06:23:17.075Z,99723.50
2023-02-26T06:28:39.032Z,99731.88
2023-02-26T06:34:01.082Z,99751.31
2023-02-26T06:39:23.162Z,99774.16
2023-02-26T06:44:45.075Z,99775.88
2023-02-26T06:50:08.117Z,99788.53
2023-02-26T06:55:29.985Z,99785.09
2023-02-26T07:00:51.928Z,99807.13
2023-02-26T07:06:26.935Z,99814.84
2023-02-26T07:11:49.074Z,99828.41
2023-02-26T07:17:11.007Z,99835.25
2023-02-26T07:22:33.219Z,99836.97
2023-02-26T07:27:55.137Z,99842.13
2023-02-26T07:33:16.997Z,99860.75
2023-02-26T07:38:38.850Z,99866.69
2023-02-26T07:44:00.697Z,99886.19
2023-02-26T07:49:22.740Z,99902.25
2023-02-26T07:54:44.569Z,99910.75
2023-02-26T08:00:09.711Z,99912.41
2023-02-26T08:05:31.691Z,99912.41
2023-02-26T08:10:53.556Z,99920.94
2023-02-26T08:16:15.519Z,99932.81
2023-02-26T08:21:37.468Z,99947.19
2023-02-26T08:26:59.546Z,99953.13
2023-02-26T08:32:21.540Z,99962.44
2023-02-26T08:37:43.389Z,99950.59
2023-02-26T08:43:05.234Z,99968.34
2023-02-26T08:48:27.409Z,99970.00
2023-02-26T08:53:49.416Z,99982.72
2023-02-26T08:59:11.290Z,100009.81
2023-02-26T09:04:33.119Z,100031.78
2023-02-26T09:09:55.159Z,100041.09
2023-02-26T09:15:17.204Z,100044.34
2023-02-26T09:20:39.166Z,100058.91
2023-02-26T09:26:01.047Z,100065.56
2023-02-26T09:31:23.399Z,100077.53
2023-02-26T09:36:45.285Z,100075.88
2023-02-26T09:42:38.148Z,100089.44
2023-02-26T09:48:04.226Z,100094.34
2023-02-26T09:53:29.503Z,100111.44
2023-02-26T09:58:52.037Z,100109.03
2023-02-26T10:04:20.778Z,100120.84
2023-02-26T10:09:51.777Z,100127.50
2023-02-26T10:15:25.837Z,100135.22
2023-02-26T10:21:00.443Z,100148.78
2023-02-26T10:26:34.955Z,100144.47
2023-02-26T10:32:21.609Z,100152.13
2023-02-26T10:37:56.289Z,100163.25
2023-02-26T10:43:21.006Z,100168.41
2023-02-26T10:48:55.004Z,100180.94
2023-02-26T10:54:25.911Z,100191.91
2023-02-26T10:59:47.820Z,100197.22
2023-02-26T11:05:23.209Z,100200.44
2023-02-26T11:10:53.439Z,100191.22
2023-02-26T11:16:17.372Z,100210.81
2023-02-26T11:21:43.369Z,100203.41
2023-02-26T11:27:11.846Z,100216.06
2023-02-26T11:32:36.919Z,100220.41
2023-02-26T11:38:02.555Z,100228.03
2023-02-26T11:43:33.582Z,100230.59
2023-02-26T11:48:59.723Z,100245.00
2023-02-26T11:54:28.382Z,100249.13
2023-02-26T11:59:52.788Z,100267.81
2023-02-26T12:05:17.098Z,100278.78
2023-02-26T12:11:07.010Z,100288.19
2023-02-26T12:16:41.302Z,100281.47
2023-02-26T12:22:20.936Z,100296.66
2023-02-26T12:27:59.507Z,100309.38
2023-02-26T12:33:45.699Z,100311.22
2023-02-26T12:39:31.686Z,100310.31
2023-02-26T12:45:25.867Z,100319.81
2023-02-26T12:51:08.395Z,100318.09
2023-02-26T12:56:57.753Z,100321.44
2023-02-26T13:02:47.296Z,100322.34
2023-02-26T13:08:37.109Z,100333.38
2023-02-26T13:14:37.687Z,100339.19
2023-02-26T13:20:19.642Z,100348.34
2023-02-26T13:25:48.012Z,100350.25
2023-02-26T13:31:50.438Z,100350.03
2023-02-26T13:37:21.849Z,100367.91
2023-02-26T13:43:02.230Z,100370.69
2023-02-26T13:48:37.134Z,100373.13
2023-02-26T13:54:07.672Z,100379.06
2023-02-26T13:59:36.498Z,100387.53
2023-02-26T14:05:00.330Z,100379.03
2023-02-26T14:10:26.662Z,100385.91
2023-02-26T14:16:22.522Z,100383.41
2023-02-26T14:21:52.423Z,100397.00
2023-02-26T14:27:14.261Z,100399.63
2023-02-26T14:32:47.068Z,100408.81
2023-02-26T14:38:15.817Z,100404.72
2023-02-26T14:43:43.514Z,100421.59
2023-02-26T14:49:12.824Z,100423.38
2023-02-26T14:55:10.719Z,100429.16
2023-02-26T15:00:35.446Z,100441.88
2023-02-26T15:06:03.599Z,100450.44
2023-02-26T15:11:40.754Z,100439.69
2023-02-26T15:17:17.515Z,100449.72
2023-02-26T15:23:07.157Z,100473.47
2023-02-26T15:28:39.385Z,100470.97
2023-02-26T15:34:02.526Z,100484.56
2023-02-26T15:39:25.694Z,100488.66
2023-02-26T15:44:56.935Z,100491.91
2023-02-26T15:50:19.463Z,100505.50
2023-02-26T15:55:48.762Z,100508.88
2023-02-26T16:01:19.438Z,100522.34
2023-02-26T16:06:44.282Z,100536.88
2023-02-26T16:12:19.886Z,100536.66
2023-02-26T16:17:47.780Z,100540.75
2023-02-26T16:23:17.885Z,100556.78
2023-02-26T16:28:43.040Z,100559.31
2023-02-26T16:34:22.889Z,100573.91
2023-02-26T16:39:45.329Z,100582.41
2023-02-26T16:45:42.527Z,100587.38
2023-02-26T16:51:11.771Z,100589.06
2023-02-26T16:56:41.107Z,100602.75
2023-02-26T17:02:14.204Z,100603.63
2023-02-26T17:07:46.022Z,100622.34
2023-02-26T17:13:28.702Z,100624.81
2023-02-26T17:18:50.925Z,100631.63
2023-02-26T17:24:17.027Z,100636.75
2023-02-26T17:29:41.884Z,100647.81
2023-02-26T17:35:03.865Z,100656.31
2023-02-26T17:40:33.388Z,100663.22
2023-02-26T17:45:55.563Z,100670.84
2023-02-26T17:51:18.008Z,100682.72
2023-02-26T17:56:40.043Z,100696.28
2023-02-26T18:02:02.075Z,100696.16
2023-02-26T18:07:25.085Z,100704.63
2023-02-26T18:12:47.129Z,100712.91
2023-02-26T18:18:13.493Z,100713.88
2023-02-26T18:23:35.393Z,100714.78
2023-02-26T18:28:57.946Z,100721.22
2023-02-26T18:34:19.853Z,100722.97
2023-02-26T18:39:42.310Z,100720.56
2023-02-26T18:45:04.561Z,100736.75
2023-02-26T18:50:26.460Z,100744.44
2023-02-26T18:55:52.783Z,100735.97
2023-02-26T19:01:14.995Z,100759.66
2023-02-26T19:06:37.247Z,100770.50
2023-02-26T19:11:59.943Z,100774.84
2023-02-26T19:17:22.778Z,100781.47
2023-02-26T19:22:45.446Z,100784.97
2023-02-26T19:28:07.386Z,100789.28
2023-02-26T19:33:29.805Z,100791.88
2023-02-26T19:38:52.096Z,100788.44
2023-02-26T19:44:14.066Z,100794.44
2023-02-26T19:49:36.110Z,100803.81
2023-02-26T19:54:58.411Z,100803.69
2023-02-26T20:00:20.513Z,100819.03
2023-02-26T20:05:42.498Z,100818.69
2023-02-26T20:11:04.805Z,100827.25
2023-02-26T20:16:26.712Z,100834.81
2023-02-26T20:21:48.659Z,100838.53
2023-02-26T20:27:10.574Z,100843.56
2023-02-26T20:32:32.614Z,100845.38
2023-02-26T20:37:54.668Z,100855.66
2023-02-26T20:43:16.958Z,100865.78
2023-02-26T20:48:39.427Z,100864.03
2023-02-26T20:54:01.327Z,100863.19
2023-02-26T20:59:23.431Z,100864.91
2023-02-26T21:04:45.397Z,100873.34
2023-02-26T21:10:12.247Z,100869.94
2023-02-26T21:15:34.517Z,100865.66
2023-02-26T21:20:56.395Z,100881.66
2023-02-26T21:26:18.305Z,100897.84
2023-02-26T21:31:40.763Z,100896.94
2023-02-26T21:37:05.250Z,100903.19
2023-02-26T21:42:27.232Z,100909.09
2023-02-26T21:47:49.178Z,100913.34
2023-02-26T21:53:11.147Z,100916.00
2023-02-26T21:58:32.983Z,100917.69
2023-02-26T22:03:54.899Z,100919.03
2023-02-26T22:09:16.945Z,100928.53
2023-02-26T22:14:38.772Z,100940.16
2023-02-26T22:20:00.609Z,100940.31
2023-02-26T22:25:22.530Z,100937.88
2023-02-26T22:30:44.633Z,100950.38
2023-02-26T22:36:06.955Z,100966.22
2023-02-26T22:41:28.811Z,100959.66
2023-02-26T22:46:50.842Z,100966.59
2023-02-26T22:52:12.869Z,100969.88
2023-02-26T22:57:34.901Z,100971.28
2023-02-26T23:02:56.753Z,100977.19
2023-02-26T23:08:18.648Z,100979.88
2023-02-26T23:13:40.633Z,100986.91
2023-02-26T23:19:02.796Z,100979.19
2023-02-26T23:24:24.769Z,100989.47
2023-02-26T23:29:46.589Z,100994.41
2023-02-26T23:35:08.813Z,101005.53
2023-02-26T23:40:31.836Z,101009.81
2023-02-26T23:45:53.742Z,101019.84
2023-02-26T23:51:15.620Z,101018.06
2023-02-26T23:56:37.632Z,101020.53
